Time;durP1;ratioP1;P1;durP2;ratioP2;P2;SDS_P1;SDS_P2;PMS_P1;PMS_P2;Temp;Humidity;BMP_temperature;BMP_pressure;BME280_temperature;BME280_humidity;BME280_pressure;Samples;Min_cycle;Max_cycle;Signal;HPM_P1;HPM_P2
2022/11/30 00:00:31;;;;;;;32.25;17.33;;;-7.50;98.00;;;;;;4995099;28;20053;-83
2022/11/30 00:02:57;;;;;;;39.80;17.45;;;-7.50;98.00;;;;;;4995098;28;20018;-81
2022/11/30 00:05:23;;;;;;;27.98;17.02;;;-7.50;97.90;;;;;;4995655;28;20057;-78
2022/11/30 00:07:50;;;;;;;25.40;16.30;;;-7.50;97.90;;;;;;4995930;28;20019;-78
2022/11/30 00:10:16;;;;;;;27.30;18.37;;;-7.50;97.90;;;;;;4996689;28;20498;-80
2022/11/30 00:12:42;;;;;;;23.80;13.93;;;-7.50;97.90;;;;;;4996189;28;20027;-78
2022/11/30 00:15:13;;;;;;;29.73;18.83;;;-7.50;97.90;;;;;;4995431;28;20042;-78
2022/11/30 00:17:40;;;;;;;25.25;14.68;;;-7.50;97.90;;;;;;4983250;28;20014;-78
2022/11/30 00:20:07;;;;;;;18.90;14.85;;;-7.50;97.90;;;;;;4995296;28;20061;-79
2022/11/30 00:22:33;;;;;;;26.58;16.33;;;-7.50;97.80;;;;;;4997358;28;20026;-77
2022/11/30 00:25:01;;;;;;;24.40;15.70;;;-7.60;97.80;;;;;;4995709;28;20082;-78
2022/11/30 00:27:28;;;;;;;34.45;17.92;;;-7.60;97.80;;;;;;4995753;28;20045;-78
2022/11/30 00:29:55;;;;;;;28.33;15.20;;;-7.60;97.80;;;;;;4995386;28;20026;-79
2022/11/30 00:32:20;;;;;;;30.08;19.20;;;-7.60;97.70;;;;;;4993578;28;20027;-80
2022/11/30 00:34:49;;;;;;;28.77;17.15;;;-7.60;97.70;;;;;;4993550;28;20041;-79
2022/11/30 00:37:15;;;;;;;30.88;17.40;;;-7.70;97.80;;;;;;4994891;28;20023;-78
2022/11/30 00:39:41;;;;;;;38.78;17.42;;;-7.70;97.80;;;;;;4994843;28;20026;-78
2022/11/30 00:42:07;;;;;;;28.27;17.85;;;-7.60;97.80;;;;;;4994985;28;20507;-79
2022/11/30 00:44:33;;;;;;;29.20;17.88;;;-7.60;97.90;;;;;;4993789;28;20105;-80
2022/11/30 00:46:59;;;;;;;34.85;18.27;;;-7.70;97.80;;;;;;4995038;28;20029;-79
2022/11/30 00:49:25;;;;;;;36.45;18.65;;;-7.70;97.80;;;;;;4994894;28;20029;-80
2022/11/30 00:51:51;;;;;;;32.25;19.73;;;-7.70;97.70;;;;;;4994909;28;20043;-78
2022/11/30 00:54:16;;;;;;;29.25;17.85;;;-7.70;97.80;;;;;;4994753;28;20483;-78
2022/11/30 00:56:42;;;;;;;40.28;20.15;;;-7.70;97.80;;;;;;4993641;28;20030;-80
2022/11/30 00:59:08;;;;;;;35.33;19.25;;;-7.70;97.80;;;;;;4994674;28;20113;-80
2022/11/30 01:01:34;;;;;;;35.47;19.10;;;-7.70;97.90;;;;;;4994663;28;20101;-79
2022/11/30 01:04:01;;;;;;;33.97;19.27;;;-7.70;97.80;;;;;;4995214;28;20026;-79
2022/11/30 01:06:27;;;;;;;29.07;18.07;;;-7.70;97.80;;;;;;4998112;28;20023;-80
2022/11/30 01:08:53;;;;;;;34.13;19.50;;;-7.70;97.80;;;;;;4997800;28;20058;-79
2022/11/30 01:11:29;;;;;;;29.52;19.73;;;-7.70;97.80;;;;;;5003661;28;20033;-78
2022/11/30 01:13:57;;;;;;;37.33;21.00;;;-7.70;97.70;;;;;;4994322;28;20030;-79
2022/11/30 01:16:26;;;;;;;41.40;20.50;;;-7.70;97.70;;;;;;4994533;28;20089;-80
2022/11/30 01:18:52;;;;;;;29.23;19.33;;;-7.70;97.70;;;;;;4990663;28;20030;-79
2022/11/30 01:21:21;;;;;;;36.35;20.05;;;-7.70;97.70;;;;;;4994418;28;20400;-79
2022/11/30 01:23:47;;;;;;;31.77;20.70;;;-7.70;97.80;;;;;;4994186;28;20424;-79
2022/11/30 01:26:14;;;;;;;37.15;23.38;;;-7.80;97.70;;;;;;4994420;28;20081;-80
2022/11/30 01:28:40;;;;;;;34.50;21.60;;;-7.70;97.70;;;;;;5000317;28;20030;-78
2022/11/30 01:31:08;;;;;;;37.72;19.88;;;-7.80;97.70;;;;;;4999928;28;20200;-80
2022/11/30 01:33:34;;;;;;;32.53;19.58;;;-7.80;97.70;;;;;;4994387;28;20038;-79
2022/11/30 01:36:22;;;;;;;24.65;16.25;;;-7.80;97.70;;;;;;4994142;28;20018;-81
2022/11/30 01:38:50;;;;;;;30.67;18.23;;;-7.80;97.70;;;;;;4993882;28;20020;-79
2022/11/30 01:41:28;;;;;;;42.88;24.35;;;-7.80;97.70;;;;;;4994045;28;20601;-79
2022/11/30 01:44:16;;;;;;;43.60;22.73;;;-7.80;97.80;;;;;;4988795;28;20080;-78
2022/11/30 01:47:08;;;;;;;33.47;18.85;;;-7.80;97.80;;;;;;4994140;28;20019;-78
2022/11/30 01:49:36;;;;;;;39.28;22.42;;;-7.80;97.70;;;;;;4985645;28;20026;-78
2022/11/30 01:52:13;;;;;;;41.95;21.05;;;-7.80;97.70;;;;;;4994580;28;20018;-79
2022/11/30 01:54:50;;;;;;;36.65;22.42;;;-7.80;97.70;;;;;;4995142;28;20038;-78
2022/11/30 01:57:41;;;;;;;33.38;20.60;;;-7.80;97.70;;;;;;4993937;28;20019;-77
2022/11/30 02:00:10;;;;;;;38.97;20.85;;;-7.80;97.90;;;;;;4975925;28;20041;-78
2022/11/30 02:03:06;;;;;;;41.40;23.92;;;-7.80;97.60;;;;;;4993908;28;20468;-79
2022/11/30 02:05:38;;;;;;;30.85;18.67;;;-7.80;97.60;;;;;;4981998;28;20050;-80
2022/11/30 02:08:09;;;;;;;39.67;21.95;;;-7.90;97.60;;;;;;4992076;28;20513;-80
2022/11/30 02:10:39;;;;;;;36.63;21.13;;;-7.90;97.60;;;;;;4992045;28;20105;-79
2022/11/30 02:13:25;;;;;;;35.40;21.63;;;-7.90;97.70;;;;;;4993207;28;20061;-79
2022/11/30 02:16:06;;;;;;;29.40;15.83;;;-7.90;97.60;;;;;;4984252;28;20026;-79
2022/11/30 02:18:58;;;;;;;36.58;20.52;;;-7.80;97.70;;;;;;4992921;28;20049;-77
2022/11/30 02:21:44;;;;;;;36.28;21.27;;;-7.90;97.60;;;;;;4993245;28;20036;-78
2022/11/30 02:24:19;;;;;;;34.75;20.58;;;-7.90;97.60;;;;;;4983769;28;20057;-77
2022/11/30 02:27:00;;;;;;;35.17;19.48;;;-7.90;97.60;;;;;;4991784;28;20022;-79
2022/11/30 02:30:04;;;;;;;34.17;18.88;;;-7.90;97.60;;;;;;4986138;28;20060;-78
2022/11/30 02:32:54;;;;;;;35.80;19.63;;;-7.90;97.60;;;;;;4971017;28;20412;-81
2022/11/30 02:35:25;;;;;;;31.42;19.98;;;-7.90;97.50;;;;;;4992024;28;20412;-79
2022/11/30 02:37:53;;;;;;;30.27;17.58;;;-7.90;97.50;;;;;;4992662;28;20018;-79
2022/11/30 02:40:20;;;;;;;33.55;18.85;;;-8.00;97.40;;;;;;4992613;28;20037;-78
2022/11/30 02:42:52;;;;;;;33.30;18.38;;;-8.00;97.50;;;;;;4982344;28;20027;-78
2022/11/30 02:45:28;;;;;;;35.00;19.10;;;-8.00;97.60;;;;;;4991821;28;20022;-77
2022/11/30 02:48:07;;;;;;;38.83;19.50;;;-8.00;97.50;;;;;;4992736;28;20081;-79
2022/11/30 02:50:39;;;;;;;35.22;18.95;;;-8.00;97.50;;;;;;4985546;28;20030;-78
2022/11/30 02:53:07;;;;;;;33.17;18.40;;;-8.00;97.50;;;;;;4987317;28;20018;-78
2022/11/30 02:55:33;;;;;;;29.38;19.48;;;-8.00;97.50;;;;;;4984176;28;20081;-79
2022/11/30 02:58:00;;;;;;;33.90;19.20;;;-8.00;97.60;;;;;;4992668;28;20023;-79
2022/11/30 03:00:26;;;;;;;33.53;18.55;;;-8.00;97.60;;;;;;4992435;28;20113;-78
2022/11/30 03:02:52;;;;;;;31.98;19.02;;;-8.00;97.60;;;;;;4992602;28;20029;-78
2022/11/30 03:05:18;;;;;;;32.22;19.27;;;-8.00;97.50;;;;;;4991749;28;20642;-78
2022/11/30 03:07:43;;;;;;;29.83;18.17;;;-8.10;97.40;;;;;;4993288;28;20053;-79
2022/11/30 03:10:10;;;;;;;37.25;20.48;;;-8.10;97.50;;;;;;4992770;28;20033;-81
2022/11/30 03:12:36;;;;;;;36.20;20.30;;;-8.10;97.60;;;;;;4993292;28;20503;-79
2022/11/30 03:15:02;;;;;;;33.28;20.73;;;-8.10;97.50;;;;;;4992473;28;20049;-79
2022/11/30 03:17:28;;;;;;;32.13;17.35;;;-8.00;97.60;;;;;;4992988;28;20018;-79
2022/11/30 03:19:54;;;;;;;32.03;20.02;;;-8.00;97.50;;;;;;5000415;28;20038;-79
2022/11/30 03:22:19;;;;;;;31.23;18.50;;;-8.00;97.50;;;;;;5000128;28;20026;-80
2022/11/30 03:24:45;;;;;;;34.38;19.17;;;-8.10;97.40;;;;;;4999753;28;20516;-80
2022/11/30 03:27:12;;;;;;;31.33;19.70;;;-8.10;97.40;;;;;;5000989;28;20135;-80
2022/11/30 03:29:38;;;;;;;36.17;20.92;;;-8.10;97.50;;;;;;5001719;28;20076;-81
2022/11/30 03:32:04;;;;;;;33.05;19.90;;;-8.10;97.40;;;;;;4995334;28;20492;-79
2022/11/30 03:34:30;;;;;;;33.97;19.20;;;-8.10;97.40;;;;;;4996167;28;20488;-78
2022/11/30 03:36:56;;;;;;;38.50;21.92;;;-8.20;97.60;;;;;;4994999;28;20072;-78
2022/11/30 03:39:23;;;;;;;35.92;20.33;;;-8.20;97.40;;;;;;4996267;28;20365;-78
2022/11/30 03:41:49;;;;;;;37.53;21.52;;;-8.20;97.40;;;;;;4998959;28;20049;-80
2022/11/30 03:44:16;;;;;;;37.83;22.08;;;-8.20;97.50;;;;;;4996237;28;20022;-79
2022/11/30 03:46:41;;;;;;;29.07;18.43;;;-8.20;97.50;;;;;;4996559;28;20026;-79
2022/11/30 03:49:07;;;;;;;30.95;19.00;;;-8.10;97.50;;;;;;4996345;28;20030;-79
2022/11/30 03:51:34;;;;;;;35.13;19.25;;;-8.10;97.50;;;;;;4994981;28;20026;-79
2022/11/30 03:54:00;;;;;;;31.73;18.93;;;-8.10;97.60;;;;;;4996676;28;20028;-81
2022/11/30 03:56:26;;;;;;;35.22;21.02;;;-8.10;97.60;;;;;;4996783;28;20710;-80
2022/11/30 03:58:52;;;;;;;37.50;22.23;;;-8.10;97.50;;;;;;4997126;28;20029;-80
2022/11/30 04:01:23;;;;;;;39.67;20.00;;;-8.10;97.50;;;;;;4997215;28;20026;-79
2022/11/30 04:03:52;;;;;;;40.00;19.40;;;-8.10;97.50;;;;;;4984837;28;20400;-78
2022/11/30 04:06:19;;;;;;;41.50;22.25;;;-8.10;97.50;;;;;;4996269;28;20395;-78
2022/11/30 04:08:44;;;;;;;37.38;19.88;;;-8.10;97.50;;;;;;4996656;28;20037;-79
2022/11/30 04:11:11;;;;;;;32.97;18.95;;;-8.10;97.40;;;;;;4996236;28;20022;-77
2022/11/30 04:13:52;;;;;;;35.03;19.80;;;-8.20;97.40;;;;;;4993497;28;20476;-81
2022/11/30 04:16:18;;;;;;;33.70;18.70;;;-8.10;97.50;;;;;;4996013;28;20566;-80
2022/11/30 04:18:43;;;;;;;32.63;17.83;;;-8.10;97.50;;;;;;4994885;28;20077;-79
2022/11/30 04:21:09;;;;;;;32.97;19.58;;;-8.10;97.50;;;;;;4996097;28;20023;-80
2022/11/30 04:23:38;;;;;;;33.55;20.50;;;-8.10;97.50;;;;;;4996199;28;20022;-77
2022/11/30 04:26:05;;;;;;;30.17;20.13;;;-8.10;97.50;;;;;;4994516;28;20054;-78
2022/11/30 04:28:31;;;;;;;;;;;-8.10;97.50;;;;;;4996383;28;20019;-79
2022/11/30 04:30:59;;;;;;;25.53;15.87;;;-8.10;97.50;;;;;;4995520;28;20426;-79
2022/11/30 04:33:26;;;;;;;33.47;21.20;;;-8.10;97.40;;;;;;4995504;28;20025;-80
2022/11/30 04:35:55;;;;;;;33.13;18.42;;;-8.20;97.30;;;;;;4995938;28;20425;-79
2022/11/30 04:38:21;;;;;;;31.35;21.25;;;-8.20;97.40;;;;;;4996207;28;20026;-80
2022/11/30 04:40:47;;;;;;;27.98;16.45;;;-8.20;97.40;;;;;;4977892;28;20023;-80
2022/11/30 04:43:13;;;;;;;32.38;17.98;;;-8.20;97.40;;;;;;4995295;28;20026;-81
2022/11/30 04:45:39;;;;;;;34.22;18.65;;;-8.20;97.40;;;;;;4995437;28;20033;-79
2022/11/30 04:48:06;;;;;;;41.95;21.20;;;-8.20;97.40;;;;;;4995189;28;20387;-80
2022/11/30 04:50:32;;;;;;;32.55;20.55;;;-8.20;97.40;;;;;;4995203;28;20030;-79
2022/11/30 04:52:59;;;;;;;35.57;21.27;;;-8.20;97.50;;;;;;4995176;28;20470;-79
2022/11/30 04:55:25;;;;;;;28.95;21.15;;;-8.20;97.50;;;;;;4995463;28;20477;-80
2022/11/30 04:57:51;;;;;;;35.90;21.08;;;-8.20;97.50;;;;;;4996907;28;20029;-79
2022/11/30 05:00:17;;;;;;;34.63;21.98;;;-8.20;97.50;;;;;;4994672;28;20464;-79
2022/11/30 05:02:43;;;;;;;33.30;20.10;;;-8.20;97.40;;;;;;4994992;28;20109;-78
2022/11/30 05:05:10;;;;;;;41.53;20.88;;;-8.20;97.50;;;;;;4995192;28;20061;-76
2022/11/30 05:07:37;;;;;;;38.10;21.15;;;-8.20;97.50;;;;;;4995694;28;20030;-79
2022/11/30 05:10:04;;;;;;;25.15;16.20;;;-8.20;97.50;;;;;;4998585;28;20029;-77
2022/11/30 05:12:31;;;;;;;30.25;19.00;;;-8.20;97.50;;;;;;5014614;28;20032;-78
2022/11/30 05:14:56;;;;;;;43.63;21.00;;;-8.20;97.50;;;;;;5012320;28;20037;-78
2022/11/30 05:17:22;;;;;;;34.03;19.60;;;-8.20;97.50;;;;;;4998608;28;20384;-79
2022/11/30 05:19:48;;;;;;;33.60;20.48;;;-8.20;97.50;;;;;;4995600;28;20400;-79
2022/11/30 05:22:14;;;;;;;33.53;20.45;;;-8.20;97.50;;;;;;4994377;28;20049;-80
2022/11/30 05:24:40;;;;;;;42.10;23.13;;;-8.20;97.50;;;;;;4995073;28;20057;-77
2022/11/30 05:27:06;;;;;;;29.52;19.52;;;-8.20;97.50;;;;;;4994441;28;20026;-78
2022/11/30 05:29:33;;;;;;;33.33;20.13;;;-8.20;97.50;;;;;;4995380;28;20059;-79
2022/11/30 05:32:00;;;;;;;31.17;20.90;;;-8.20;97.50;;;;;;4993864;28;20385;-79
2022/11/30 05:34:26;;;;;;;27.42;16.42;;;-8.20;97.60;;;;;;4994297;28;20049;-81
2022/11/30 05:36:52;;;;;;;36.17;20.08;;;-8.20;97.60;;;;;;4994201;28;20486;-78
2022/11/30 05:39:18;;;;;;;36.47;20.30;;;-8.20;97.60;;;;;;4993111;28;20065;-79
2022/11/30 05:41:44;;;;;;;44.28;22.25;;;-8.20;97.60;;;;;;4993340;28;20096;-79
2022/11/30 05:44:10;;;;;;;35.70;20.50;;;-8.10;97.60;;;;;;4994059;28;20038;-79
2022/11/30 05:46:36;;;;;;;43.15;22.05;;;-8.10;97.60;;;;;;4996118;28;20022;-78
2022/11/30 05:49:03;;;;;;;41.03;22.15;;;-8.10;97.60;;;;;;4995089;28;20369;-79
2022/11/30 05:51:29;;;;;;;26.23;16.77;;;-8.20;97.60;;;;;;4997863;28;20499;-80
2022/11/30 05:53:54;;;;;;;35.65;21.30;;;-8.10;97.50;;;;;;4994204;28;20319;-78
2022/11/30 05:56:21;;;;;;;47.42;25.70;;;-8.10;97.60;;;;;;4994419;28;20022;-79
2022/11/30 05:58:47;;;;;;;36.93;21.77;;;-8.10;97.60;;;;;;4994058;28;20479;-79
2022/11/30 06:01:25;;;;;;;40.45;23.77;;;-8.10;97.70;;;;;;4993437;28;20050;-80
2022/11/30 06:03:51;;;;;;;42.25;24.67;;;-8.00;97.70;;;;;;4994758;28;20030;-80
2022/11/30 06:06:18;;;;;;;36.85;22.33;;;-8.00;97.60;;;;;;4993610;28;20567;-80
2022/11/30 06:08:45;;;;;;;31.05;19.52;;;-8.00;97.60;;;;;;4976831;28;20041;-79
2022/11/30 06:11:12;;;;;;;34.92;21.60;;;-7.90;97.60;;;;;;4993689;28;20026;-79
2022/11/30 06:13:38;;;;;;;38.10;22.77;;;-7.90;97.60;;;;;;4992125;28;20022;-80
2022/11/30 06:16:05;;;;;;;35.83;21.27;;;-7.90;97.60;;;;;;4994238;28;20396;-79
2022/11/30 06:18:32;;;;;;;42.45;23.63;;;-7.90;97.50;;;;;;4993670;28;20097;-79
2022/11/30 06:21:02;;;;;;;44.60;23.80;;;-7.80;97.50;;;;;;4994418;28;20030;-79
2022/11/30 06:23:28;;;;;;;46.88;23.70;;;-7.80;97.50;;;;;;4993598;28;20781;-78
2022/11/30 06:25:54;;;;;;;33.58;19.20;;;-7.80;97.50;;;;;;4992677;28;20047;-78
2022/11/30 06:28:20;;;;;;;35.25;22.38;;;-7.80;97.40;;;;;;4994189;28;20492;-79
2022/11/30 06:30:46;;;;;;;36.13;20.48;;;-7.80;97.30;;;;;;4993507;28;20026;-78
2022/11/30 06:33:12;;;;;;;41.53;20.67;;;-7.80;97.20;;;;;;4993156;28;20061;-79
2022/11/30 06:35:45;;;;;;;35.50;22.00;;;-7.80;97.30;;;;;;4993684;28;20062;-78
2022/11/30 06:38:12;;;;;;;45.75;21.25;;;-7.70;97.20;;;;;;4993886;28;20102;-78
2022/11/30 06:40:38;;;;;;;45.03;23.57;;;-7.70;97.10;;;;;;4993326;28;20029;-81
2022/11/30 06:43:03;;;;;;;37.55;21.98;;;-7.70;97.10;;;;;;4993359;28;20030;-79
2022/11/30 06:45:30;;;;;;;41.78;21.27;;;-7.70;97.10;;;;;;4993654;28;20427;-80
2022/11/30 06:47:57;;;;;;;42.88;22.90;;;-7.60;97.10;;;;;;4993288;28;20023;-81
2022/11/30 06:50:23;;;;;;;34.27;20.33;;;-7.60;97.10;;;;;;4992995;28;20415;-80
2022/11/30 06:52:49;;;;;;;40.22;23.67;;;-7.60;97.10;;;;;;4992995;28;20027;-80
2022/11/30 06:55:14;;;;;;;41.35;21.27;;;-7.50;97.00;;;;;;4991897;28;20559;-80
2022/11/30 06:57:41;;;;;;;38.65;23.15;;;-7.50;97.00;;;;;;4994721;28;20025;-81
2022/11/30 07:00:07;;;;;;;39.55;21.33;;;-7.40;97.00;;;;;;4994177;28;20061;-81
2022/11/30 07:02:33;;;;;;;43.13;22.53;;;-7.30;97.00;;;;;;4993613;28;20480;-80
2022/11/30 07:04:59;;;;;;;39.28;23.20;;;-7.30;96.80;;;;;;4995626;28;20100;-80
2022/11/30 07:07:28;;;;;;;43.40;21.50;;;-7.30;96.70;;;;;;4994023;28;20405;-80
2022/11/30 07:09:54;;;;;;;37.20;21.95;;;-7.20;96.70;;;;;;4995980;28;20026;-80
2022/11/30 07:12:27;;;;;;;45.22;20.55;;;-7.20;96.60;;;;;;4996769;28;20112;-80
2022/11/30 07:14:55;;;;;;;46.60;22.05;;;-7.10;96.60;;;;;;4997961;28;20113;-80
2022/11/30 07:17:22;;;;;;;41.80;23.50;;;-7.10;96.40;;;;;;5000049;28;20057;-77
2022/11/30 07:19:48;;;;;;;36.20;21.77;;;-7.00;96.40;;;;;;4993085;28;20031;-79
2022/11/30 07:22:14;;;;;;;35.60;22.20;;;-6.90;96.20;;;;;;4992570;28;20018;-78
2022/11/30 07:27:24;;;;;;;40.10;22.77;;;-6.90;96.00;;;;;;4992292;28;20438;-79
2022/11/30 07:29:51;;;;;;;42.65;25.80;;;-7.00;96.00;;;;;;4993094;28;20019;-81
2022/11/30 07:32:17;;;;;;;44.42;23.75;;;-7.00;96.00;;;;;;4992622;28;20030;-79
2022/11/30 07:34:44;;;;;;;43.33;26.03;;;-6.90;96.10;;;;;;4991340;28;20046;-79
2022/11/30 07:37:10;;;;;;;33.85;21.48;;;-6.90;95.90;;;;;;4987606;28;20296;-79
2022/11/30 07:39:36;;;;;;;44.70;25.20;;;-6.90;96.00;;;;;;4992784;28;20108;-80
2022/11/30 07:42:02;;;;;;;52.88;25.15;;;-6.80;95.90;;;;;;4991474;28;20026;-79
2022/11/30 07:44:28;;;;;;;46.90;23.55;;;-6.80;95.90;;;;;;4991294;28;20448;-79
2022/11/30 07:46:54;;;;;;;40.78;21.65;;;-6.70;95.80;;;;;;4992406;28;20021;-81
2022/11/30 07:49:20;;;;;;;43.53;24.98;;;-6.70;95.80;;;;;;4992685;28;20019;-80
2022/11/30 07:51:46;;;;;;;48.30;25.50;;;-6.60;95.80;;;;;;4993145;28;20491;-78
2022/11/30 07:54:11;;;;;;;36.10;20.48;;;-6.50;95.90;;;;;;4992489;28;20042;-79
2022/11/30 07:56:37;;;;;;;32.70;21.23;;;-6.10;96.40;;;;;;4993478;28;20034;-79
2022/11/30 07:59:03;;;;;;;37.45;22.77;;;-5.50;96.70;;;;;;4996575;28;20030;-78
2022/11/30 08:01:31;;;;;;;40.95;22.85;;;-5.00;96.30;;;;;;4992333;28;20026;-78
2022/11/30 08:03:58;;;;;;;45.42;22.92;;;-4.60;95.60;;;;;;4993408;28;20053;-78
2022/11/30 08:06:26;;;;;;;47.27;25.30;;;-4.40;95.00;;;;;;4995485;28;20072;-79
2022/11/30 08:08:53;;;;;;;45.10;24.38;;;-4.20;94.30;;;;;;4984464;28;20118;-80
2022/11/30 08:11:22;;;;;;;39.33;22.88;;;-4.10;93.90;;;;;;4995207;28;20033;-80
2022/11/30 08:13:48;;;;;;;33.53;21.92;;;-4.00;93.60;;;;;;4995496;28;20030;-79
2022/11/30 08:16:17;;;;;;;37.83;24.48;;;-4.00;93.00;;;;;;4995509;28;20034;-81
2022/11/30 08:18:44;;;;;;;36.90;21.77;;;-4.10;92.90;;;;;;4995066;28;20037;-80
2022/11/30 08:21:12;;;;;;;42.00;21.73;;;-4.30;92.90;;;;;;4993717;28;20112;-79
2022/11/30 08:23:43;;;;;;;38.58;22.05;;;-4.60;92.40;;;;;;4995540;28;20679;-79
2022/11/30 08:26:18;;;;;;;35.83;23.13;;;-4.80;92.60;;;;;;4995542;28;20512;-81
2022/11/30 08:28:46;;;;;;;33.92;19.23;;;-4.90;92.70;;;;;;4992423;28;20388;-83
2022/11/30 08:31:18;;;;;;;36.40;21.10;;;-4.90;93.00;;;;;;4996588;28;20057;-85
2022/11/30 08:33:45;;;;;;;36.67;23.75;;;-5.00;92.80;;;;;;4996396;28;20503;-85
2022/11/30 08:36:13;;;;;;;39.22;22.35;;;-5.10;93.10;;;;;;4996575;28;20022;-84
2022/11/30 08:38:41;;;;;;;41.28;21.73;;;-5.00;93.30;;;;;;4996235;28;20388;-82
2022/11/30 08:41:09;;;;;;;44.28;23.77;;;-4.90;93.30;;;;;;4995543;28;20038;-84
2022/11/30 08:43:35;;;;;;;50.70;27.50;;;-4.90;93.20;;;;;;4991014;28;20022;-81
2022/11/30 08:46:03;;;;;;;48.05;27.63;;;-4.90;93.30;;;;;;4995555;28;20027;-81
2022/11/30 08:48:29;;;;;;;;;;;-4.90;93.50;;;;;;4996139;28;20022;-81
2022/11/30 08:51:05;;;;;;;42.40;23.33;;;-4.80;93.60;;;;;;4987808;28;20438;-80
2022/11/30 08:53:33;;;;;;;40.07;24.57;;;-4.90;93.50;;;;;;4996327;28;20272;-81
2022/11/30 08:56:05;;;;;;;49.08;26.75;;;-4.80;93.70;;;;;;5000366;28;20339;-80
2022/11/30 08:58:34;;;;;;;48.47;25.13;;;-4.70;93.70;;;;;;5003325;28;20023;-80
2022/11/30 09:01:10;;;;;;;53.53;28.42;;;-4.60;93.70;;;;;;4998792;28;20476;-80
2022/11/30 09:03:36;;;;;;;56.20;28.25;;;-4.60;93.70;;;;;;4994239;28;20022;-80
2022/11/30 09:06:13;;;;;;;54.23;27.53;;;-4.60;93.60;;;;;;4996608;28;20030;-81
2022/11/30 09:08:41;;;;;;;48.28;26.13;;;-4.60;93.60;;;;;;4996750;28;20275;-83
2022/11/30 09:11:17;;;;;;;;;;;-4.50;93.70;;;;;;4997748;28;20396;-82
2022/11/30 09:13:44;;;;;;;51.70;28.75;;;-4.40;93.90;;;;;;5000215;28;19992;-82
2022/11/30 09:16:11;;;;;;;53.22;27.63;;;-4.40;93.60;;;;;;5011570;28;20054;-83
2022/11/30 09:18:37;;;;;;;53.38;32.85;;;-4.40;93.70;;;;;;4998449;28;20019;-85
2022/11/30 09:21:08;;;;;;;53.25;26.65;;;-4.40;93.70;;;;;;4995400;28;20018;-84
2022/11/30 09:23:34;;;;;;;50.90;26.83;;;-4.40;93.60;;;;;;4991184;28;20514;-82
2022/11/30 09:26:03;;;;;;;52.15;27.95;;;-4.50;93.70;;;;;;4995576;28;20066;-84
2022/11/30 09:28:29;;;;;;;50.63;29.15;;;-4.50;93.70;;;;;;4997178;28;20033;-83
2022/11/30 09:31:16;;;;;;;53.10;28.38;;;-4.50;93.90;;;;;;5001519;28;20476;-85
2022/11/30 09:33:43;;;;;;;47.10;27.40;;;-4.40;94.00;;;;;;4995836;28;20081;-83
2022/11/30 09:36:15;;;;;;;50.03;28.15;;;-4.30;94.10;;;;;;4994947;28;20093;-84
2022/11/30 09:38:41;;;;;;;58.72;30.00;;;-4.20;93.90;;;;;;4995926;28;20081;-83
2022/11/30 09:41:22;;;;;;;53.88;30.23;;;-4.30;93.80;;;;;;4998940;28;20030;-84
2022/11/30 09:44:06;;;;;;;47.42;28.45;;;-4.20;93.90;;;;;;4996535;28;20037;-84
2022/11/30 09:46:57;;;;;;;53.88;29.40;;;-4.20;93.80;;;;;;4994844;28;20046;-84
2022/11/30 09:49:30;;;;;;;51.28;30.48;;;-4.00;93.90;;;;;;4994889;28;20045;-85
2022/11/30 09:51:59;;;;;;;51.80;29.58;;;-3.90;93.50;;;;;;4995008;28;20027;-84
2022/11/30 09:54:35;;;;;;;52.95;29.15;;;-4.00;93.00;;;;;;4995898;28;20041;-82
2022/11/30 09:57:45;;;;;;;57.08;30.70;;;-3.90;93.30;;;;;;4981775;28;20049;-81
2022/11/30 10:00:20;;;;;;;48.08;25.13;;;-3.60;93.70;;;;;;4994735;28;20353;-83
2022/11/30 10:02:49;;;;;;;49.13;25.70;;;-3.30;93.30;;;;;;4994747;28;20090;-81
2022/11/30 10:05:44;;;;;;;54.80;25.60;;;-3.40;91.90;;;;;;4996186;28;20026;-82
2022/11/30 10:08:11;;;;;;;46.80;28.48;;;-3.50;92.50;;;;;;4989401;28;20034;-80
2022/11/30 10:10:42;;;;;;;44.95;26.67;;;-3.60;92.60;;;;;;4994715;28;20014;-80
2022/11/30 10:13:22;;;;;;;46.28;27.00;;;-3.60;92.80;;;;;;4994142;28;20063;-81
2022/11/30 10:15:53;;;;;;;45.30;26.92;;;-3.30;93.30;;;;;;4982203;28;20128;-79
2022/11/30 10:18:56;;;;;;;53.63;26.80;;;-3.00;93.00;;;;;;4992866;28;20030;-80
2022/11/30 10:21:51;;;;;;;43.20;27.92;;;-3.20;92.10;;;;;;4985333;28;20557;-79
2022/11/30 10:24:26;;;;;;;43.78;26.95;;;-3.40;92.00;;;;;;4991044;28;20038;-78
2022/11/30 10:26:57;;;;;;;43.72;27.08;;;-3.60;92.10;;;;;;4989711;28;20468;-80
2022/11/30 10:29:36;;;;;;;56.90;32.40;;;-3.80;92.20;;;;;;4991577;28;20022;-80
2022/11/30 10:32:13;;;;;;;57.25;29.38;;;-4.10;92.50;;;;;;4993028;28;20030;-79
2022/11/30 10:34:42;;;;;;;44.58;26.73;;;-4.30;92.90;;;;;;4991687;28;20039;-79
2022/11/30 10:37:19;;;;;;;56.60;28.60;;;-4.50;93.10;;;;;;4991177;28;20391;-80
2022/11/30 10:40:08;;;;;;;42.90;26.88;;;-4.60;93.60;;;;;;4994622;28;20022;-80
2022/11/30 10:42:50;;;;;;;59.63;26.00;;;-4.60;93.80;;;;;;4993509;28;20099;-80
2022/11/30 10:45:23;;;;;;;46.20;25.73;;;-4.60;93.90;;;;;;4993172;28;20049;-81
2022/11/30 10:47:56;;;;;;;59.20;29.85;;;-4.70;94.00;;;;;;4993085;28;20392;-80
2022/11/30 10:50:26;;;;;;;53.42;28.65;;;-4.70;94.00;;;;;;4994396;28;20076;-81
2022/11/30 10:52:55;;;;;;;58.05;31.67;;;-4.90;94.20;;;;;;4990782;28;20061;-80
2022/11/30 10:55:29;;;;;;;57.35;29.92;;;-5.20;94.40;;;;;;4994015;28;20043;-79
2022/11/30 10:58:12;;;;;;;56.63;28.50;;;-5.40;94.80;;;;;;4994221;28;20026;-77
2022/11/30 11:00:38;;;;;;;49.92;29.67;;;-5.50;95.20;;;;;;4982548;28;20041;-81
2022/11/30 11:03:22;;;;;;;56.60;29.00;;;-5.50;95.40;;;;;;4994971;28;20084;-78
2022/11/30 11:06:04;;;;;;;60.65;32.53;;;-5.50;95.60;;;;;;4993774;28;20022;-80
2022/11/30 11:08:30;;;;;;;63.05;31.90;;;-5.50;95.70;;;;;;4995258;28;20101;-79
2022/11/30 11:10:56;;;;;;;53.17;29.40;;;-5.50;95.80;;;;;;4994141;28;20030;-79
2022/11/30 11:13:42;;;;;;;55.85;29.75;;;-5.60;96.00;;;;;;4993861;28;20023;-77
2022/11/30 11:16:11;;;;;;;60.67;29.48;;;-5.60;96.50;;;;;;4975844;28;20041;-80
2022/11/30 11:18:54;;;;;;;62.05;29.17;;;-5.60;96.20;;;;;;4998982;28;20028;-79
2022/11/30 11:21:22;;;;;;;55.88;30.88;;;-5.60;96.60;;;;;;4984396;28;20014;-78
2022/11/30 11:23:50;;;;;;;;;;;-5.60;96.70;;;;;;4992889;28;20023;-79
2022/11/30 11:26:20;;;;;;;56.97;31.85;;;-5.70;96.60;;;;;;4992537;28;19927;-78
2022/11/30 11:28:49;;;;;;;58.65;31.77;;;-5.70;96.70;;;;;;4964179;28;20558;-79
2022/11/30 11:31:35;;;;;;;64.90;32.03;;;-5.70;96.80;;;;;;4992767;28;20030;-80
2022/11/30 11:34:03;;;;;;;57.72;33.67;;;-5.70;97.00;;;;;;4992347;28;20420;-78
2022/11/30 11:36:35;;;;;;;57.25;30.95;;;-5.60;97.00;;;;;;4968377;28;20031;-80
2022/11/30 11:39:02;;;;;;;70.15;32.45;;;-5.60;97.10;;;;;;4989144;28;20077;-78
2022/11/30 11:41:32;;;;;;;60.58;31.50;;;-5.60;97.20;;;;;;4995304;28;20018;-80
2022/11/30 11:44:06;;;;;;;65.43;34.50;;;-5.50;97.20;;;;;;4983174;28;20035;-80
2022/11/30 11:46:35;;;;;;;64.78;34.90;;;-5.50;97.20;;;;;;4994743;28;20022;-78
2022/11/30 11:49:02;;;;;;;68.10;35.28;;;-5.50;97.20;;;;;;4996169;28;20041;-79
2022/11/30 11:51:29;;;;;;;;;;;-5.50;97.20;;;;;;4997851;28;20093;-78
2022/11/30 11:54:12;;;;;;;52.40;30.02;;;-5.50;97.20;;;;;;4997747;28;19914;-80
2022/11/30 11:56:38;;;;;;;68.50;34.92;;;-5.50;97.20;;;;;;4980531;28;20032;-80
2022/11/30 11:59:16;;;;;;;59.72;31.67;;;-5.50;97.10;;;;;;4995478;28;20030;-80
2022/11/30 12:02:25;;;;;;;61.97;31.73;;;-5.60;97.20;;;;;;4996161;28;20014;-81
2022/11/30 12:05:23;;;;;;;65.05;35.80;;;-5.60;97.30;;;;;;4954724;28;20034;-80
2022/11/30 12:08:02;;;;;;;76.35;37.05;;;-5.60;97.30;;;;;;4983596;28;20100;-79
2022/11/30 12:10:48;;;;;;;64.97;32.17;;;-5.60;97.40;;;;;;4995889;28;20046;-82
2022/11/30 12:13:23;;;;;;;67.40;32.15;;;-5.60;97.50;;;;;;4996156;28;20026;-80
2022/11/30 12:15:54;;;;;;;57.70;30.65;;;-5.60;97.50;;;;;;4983960;28;20042;-81
2022/11/30 12:18:28;;;;;;;62.55;34.42;;;-5.60;97.50;;;;;;4996041;28;20030;-80
2022/11/30 12:20:57;;;;;;;59.05;32.45;;;-5.60;97.50;;;;;;4983395;28;20023;-80
2022/11/30 12:23:22;;;;;;;59.38;31.52;;;-5.60;97.50;;;;;;4996606;28;20080;-80
2022/11/30 12:26:04;;;;;;;54.78;31.27;;;-5.70;97.60;;;;;;4996872;28;20051;-81
2022/11/30 12:28:39;;;;;;;60.80;32.53;;;-5.70;97.60;;;;;;4997732;28;20097;-77
2022/11/30 12:31:13;;;;;;;65.82;32.75;;;-5.80;97.60;;;;;;4993975;28;20046;-81
2022/11/30 12:33:54;;;;;;;68.00;31.67;;;-5.80;97.70;;;;;;4985848;28;20042;-80
2022/11/30 12:36:29;;;;;;;57.90;32.15;;;-5.80;97.80;;;;;;4998630;28;20024;-79
2022/11/30 12:39:07;;;;;;;61.72;31.85;;;-5.80;97.80;;;;;;4996489;28;20480;-79
2022/11/30 12:42:04;;;;;;;65.97;34.75;;;-5.90;97.80;;;;;;4996121;28;20096;-79
2022/11/30 12:44:41;;;;;;;67.80;35.58;;;-5.90;97.80;;;;;;4996183;28;20018;-81
2022/11/30 12:47:19;;;;;;;66.30;34.67;;;-5.90;97.80;;;;;;4989309;28;20030;-81